sensor_id;sensor_type;location;lat;lon;timestamp;pressure;altitude;pressure_sealevel;temperature;humidity
54854;BME280;40747;49.480;8.658;2023-06-26T00:00:44;100148.53;;;22.37;63.51
54854;BME280;40747;49.480;8.658;2023-06-26T00:03:09;100154.88;;;22.36;63.85
54854;BME280;40747;49.480;8.658;2023-06-26T00:05:41;100148.16;;;22.42;62.43
54854;BME280;40747;49.480;8.658;2023-06-26T00:08:06;100148.78;;;22.46;63.46
54854;BME280;40747;49.480;8.658;2023-06-26T00:10:32;100153.13;;;22.47;64.15
54854;BME280;40747;49.480;8.658;2023-06-26T00:12:57;100150.44;;;22.35;64.22
54854;BME280;40747;49.480;8.658;2023-06-26T00:15:22;100153.91;;;22.26;64.32
54854;BME280;40747;49.480;8.658;2023-06-26T00:17:48;100154.06;;;22.13;64.75
54854;BME280;40747;49.480;8.658;2023-06-26T00:20:13;100154.22;;;22.00;63.86
54854;BME280;40747;49.480;8.658;2023-06-26T00:22:40;100150.69;;;22.00;62.80
54854;BME280;40747;49.480;8.658;2023-06-26T00:25:08;100144.63;;;21.86;62.85
54854;BME280;40747;49.480;8.658;2023-06-26T00:27:33;100151.06;;;21.95;62.27
54854;BME280;40747;49.480;8.658;2023-06-26T00:29:58;100150.09;;;21.96;62.43
54854;BME280;40747;49.480;8.658;2023-06-26T00:32:24;100154.69;;;22.05;62.24
54854;BME280;40747;49.480;8.658;2023-06-26T00:34:49;100148.59;;;22.03;62.10
54854;BME280;40747;49.480;8.658;2023-06-26T00:37:14;100152.28;;;22.02;62.27
54854;BME280;40747;49.480;8.658;2023-06-26T00:39:39;100139.22;;;21.98;62.28
54854;BME280;40747;49.480;8.658;2023-06-26T00:42:06;100149.34;;;21.94;62.31
54854;BME280;40747;49.480;8.658;2023-06-26T00:44:31;100153.88;;;21.82;63.36
54854;BME280;40747;49.480;8.658;2023-06-26T00:46:56;100148.75;;;21.90;62.73
54854;BME280;40747;49.480;8.658;2023-06-26T00:49:22;100154.47;;;21.97;62.63
54854;BME280;40747;49.480;8.658;2023-06-26T00:51:48;100142.16;;;22.06;62.30
54854;BME280;40747;49.480;8.658;2023-06-26T00:54:14;100132.03;;;21.98;62.40
54854;BME280;40747;49.480;8.658;2023-06-26T00:56:45;100144.44;;;22.10;62.28
54854;BME280;40747;49.480;8.658;2023-06-26T00:59:10;100141.53;;;22.14;62.20
54854;BME280;40747;49.480;8.658;2023-06-26T01:01:35;100143.84;;;22.07;62.74
54854;BME280;40747;49.480;8.658;2023-06-26T01:04:01;100139.84;;;22.01;63.01
54854;BME280;40747;49.480;8.658;2023-06-26T01:06:27;100131.53;;;22.04;62.30
54854;BME280;40747;49.480;8.658;2023-06-26T01:08:58;100133.09;;;22.07;62.17
54854;BME280;40747;49.480;8.658;2023-06-26T01:11:23;100133.59;;;22.01;61.75
54854;BME280;40747;49.480;8.658;2023-06-26T01:13:50;100125.66;;;22.10;61.74
54854;BME280;40747;49.480;8.658;2023-06-26T01:16:17;100119.66;;;22.18;61.89
54854;BME280;40747;49.480;8.658;2023-06-26T01:18:45;100119.28;;;22.23;61.92
54854;BME280;40747;49.480;8.658;2023-06-26T01:21:11;100119.50;;;22.31;61.70
54854;BME280;40747;49.480;8.658;2023-06-26T01:23:55;100115.56;;;22.35;61.10
54854;BME280;40747;49.480;8.658;2023-06-26T01:26:23;100114.72;;;22.35;61.35
54854;BME280;40747;49.480;8.658;2023-06-26T01:28:53;100109.72;;;22.41;61.09
54854;BME280;40747;49.480;8.658;2023-06-26T01:31:19;100112.03;;;22.35;61.27
54854;BME280;40747;49.480;8.658;2023-06-26T01:33:45;100095.84;;;22.25;60.89
54854;BME280;40747;49.480;8.658;2023-06-26T01:36:12;100105.88;;;22.23;61.57
54854;BME280;40747;49.480;8.658;2023-06-26T01:38:37;100100.75;;;22.20;61.36
54854;BME280;40747;49.480;8.658;2023-06-26T01:41:03;100109.28;;;22.25;61.56
54854;BME280;40747;49.480;8.658;2023-06-26T01:46:39;100102.72;;;22.18;62.16
54854;BME280;40747;49.480;8.658;2023-06-26T01:49:07;100101.03;;;22.17;62.29
54854;BME280;40747;49.480;8.658;2023-06-26T01:51:38;100100.13;;;22.27;62.64
54854;BME280;40747;49.480;8.658;2023-06-26T01:54:09;100101.31;;;22.35;62.12
54854;BME280;40747;49.480;8.658;2023-06-26T01:56:38;100111.31;;;22.33;62.13
54854;BME280;40747;49.480;8.658;2023-06-26T01:59:05;100096.25;;;22.20;61.51
54854;BME280;40747;49.480;8.658;2023-06-26T02:01:32;100106.66;;;22.14;62.17
54854;BME280;40747;49.480;8.658;2023-06-26T02:03:59;100107.75;;;22.11;62.11
54854;BME280;40747;49.480;8.658;2023-06-26T02:06:24;100113.38;;;22.08;62.50
54854;BME280;40747;49.480;8.658;2023-06-26T02:08:49;100120.94;;;22.03;63.30
54854;BME280;40747;49.480;8.658;2023-06-26T02:11:14;100122.31;;;21.97;63.49
54854;BME280;40747;49.480;8.658;2023-06-26T02:13:40;100117.09;;;21.84;63.61
54854;BME280;40747;49.480;8.658;2023-06-26T02:16:05;100113.44;;;21.74;64.62
54854;BME280;40747;49.480;8.658;2023-06-26T02:18:30;100105.03;;;21.67;65.13
54854;BME280;40747;49.480;8.658;2023-06-26T02:20:55;100112.13;;;21.57;64.97
54854;BME280;40747;49.480;8.658;2023-06-26T02:23:21;100104.78;;;21.36;66.40
54854;BME280;40747;49.480;8.658;2023-06-26T02:25:46;100113.22;;;21.20;65.69
54854;BME280;40747;49.480;8.658;2023-06-26T02:28:11;100118.06;;;21.04;66.27
54854;BME280;40747;49.480;8.658;2023-06-26T02:30:36;100115.00;;;21.08;67.10
54854;BME280;40747;49.480;8.658;2023-06-26T02:33:02;100103.94;;;21.02;66.49
54854;BME280;40747;49.480;8.658;2023-06-26T02:35:27;100120.50;;;21.18;66.70
54854;BME280;40747;49.480;8.658;2023-06-26T02:37:52;100128.06;;;21.24;67.13
54854;BME280;40747;49.480;8.658;2023-06-26T02:40:18;100124.41;;;21.14;67.01
54854;BME280;40747;49.480;8.658;2023-06-26T02:42:43;100129.47;;;21.06;67.02
54854;BME280;40747;49.480;8.658;2023-06-26T02:45:09;100130.72;;;21.02;66.98
54854;BME280;40747;49.480;8.658;2023-06-26T02:47:34;100120.22;;;21.10;67.57
54854;BME280;40747;49.480;8.658;2023-06-26T02:49:59;100120.84;;;21.14;67.04
54854;BME280;40747;49.480;8.658;2023-06-26T02:52:25;100121.31;;;21.07;66.38
54854;BME280;40747;49.480;8.658;2023-06-26T02:54:50;100115.25;;;21.05;66.64
54854;BME280;40747;49.480;8.658;2023-06-26T02:57:15;100119.38;;;20.98;66.50
54854;BME280;40747;49.480;8.658;2023-06-26T02:59:42;100109.75;;;20.95;66.52
54854;BME280;40747;49.480;8.658;2023-06-26T03:02:07;100116.81;;;20.97;66.72
54854;BME280;40747;49.480;8.658;2023-06-26T03:04:32;100119.63;;;20.95;66.63
54854;BME280;40747;49.480;8.658;2023-06-26T03:07:01;100113.31;;;20.96;66.87
54854;BME280;40747;49.480;8.658;2023-06-26T03:09:27;100119.84;;;20.92;67.34
54854;BME280;40747;49.480;8.658;2023-06-26T03:11:52;100128.38;;;20.97;67.66
54854;BME280;40747;49.480;8.658;2023-06-26T03:14:18;100121.81;;;20.90;67.08
54854;BME280;40747;49.480;8.658;2023-06-26T03:16:43;100133.13;;;20.93;66.52
54854;BME280;40747;49.480;8.658;2023-06-26T03:19:09;100136.81;;;20.68;67.03
54854;BME280;40747;49.480;8.658;2023-06-26T03:21:34;100139.69;;;20.54;67.20
54854;BME280;40747;49.480;8.658;2023-06-26T03:23:59;100135.88;;;20.45;67.87
54854;BME280;40747;49.480;8.658;2023-06-26T03:26:25;100143.66;;;20.48;68.82
54854;BME280;40747;49.480;8.658;2023-06-26T03:28:53;100137.06;;;20.41;68.86
54854;BME280;40747;49.480;8.658;2023-06-26T03:31:18;100142.88;;;20.35;68.92
54854;BME280;40747;49.480;8.658;2023-06-26T03:33:44;100146.66;;;20.32;70.98
54854;BME280;40747;49.480;8.658;2023-06-26T03:36:09;100150.84;;;20.23;70.44
54854;BME280;40747;49.480;8.658;2023-06-26T03:38:34;100151.31;;;20.17;70.57
54854;BME280;40747;49.480;8.658;2023-06-26T03:41:00;100145.38;;;20.25;70.82
54854;BME280;40747;49.480;8.658;2023-06-26T03:43:25;100143.78;;;20.22;70.48
54854;BME280;40747;49.480;8.658;2023-06-26T03:45:50;100145.91;;;20.30;70.62
54854;BME280;40747;49.480;8.658;2023-06-26T03:48:16;100145.50;;;20.23;70.14
54854;BME280;40747;49.480;8.658;2023-06-26T03:50:41;100138.44;;;20.22;70.58
54854;BME280;40747;49.480;8.658;2023-06-26T03:53:06;100140.03;;;20.25;70.51
54854;BME280;40747;49.480;8.658;2023-06-26T03:55:31;100134.16;;;20.20;69.44
54854;BME280;40747;49.480;8.658;2023-06-26T03:57:57;100137.53;;;20.10;70.19
54854;BME280;40747;49.480;8.658;2023-06-26T04:00:22;100136.00;;;19.95;69.59
54854;BME280;40747;49.480;8.658;2023-06-26T04:02:48;100135.84;;;19.59;70.41
54854;BME280;40747;49.480;8.658;2023-06-26T04:05:13;100138.16;;;19.64;70.40
54854;BME280;40747;49.480;8.658;2023-06-26T04:07:39;100135.84;;;19.59;70.59
54854;BME280;40747;49.480;8.658;2023-06-26T04:10:05;100132.28;;;19.59;70.28
54854;BME280;40747;49.480;8.658;2023-06-26T04:12:31;100139.97;;;19.63;70.33
54854;BME280;40747;49.480;8.658;2023-06-26T04:14:56;100136.63;;;19.73;69.91
54854;BME280;40747;49.480;8.658;2023-06-26T04:17:22;100143.94;;;19.84;69.66
54854;BME280;40747;49.480;8.658;2023-06-26T04:19:47;100141.53;;;19.92;69.21
54854;BME280;40747;49.480;8.658;2023-06-26T04:22:12;100150.06;;;19.97;68.94
54854;BME280;40747;49.480;8.658;2023-06-26T04:24:38;100153.50;;;19.99;68.81
54854;BME280;40747;49.480;8.658;2023-06-26T04:27:03;100150.72;;;20.01;69.01
54854;BME280;40747;49.480;8.658;2023-06-26T04:29:28;100146.84;;;20.05;68.96
54854;BME280;40747;49.480;8.658;2023-06-26T04:31:54;100143.22;;;20.06;68.78
54854;BME280;40747;49.480;8.658;2023-06-26T04:34:27;100143.31;;;20.04;68.65
54854;BME280;40747;49.480;8.658;2023-06-26T04:36:52;100144.06;;;20.06;68.80
54854;BME280;40747;49.480;8.658;2023-06-26T04:39:18;100128.69;;;20.21;68.70
54854;BME280;40747;49.480;8.658;2023-06-26T04:41:44;100133.72;;;20.26;68.10
54854;BME280;40747;49.480;8.658;2023-06-26T04:44:10;100145.66;;;20.33;68.11
54854;BME280;40747;49.480;8.658;2023-06-26T04:46:36;100137.41;;;20.36;67.49
54854;BME280;40747;49.480;8.658;2023-06-26T04:49:01;100143.78;;;20.46;67.29
54854;BME280;40747;49.480;8.658;2023-06-26T04:51:28;100149.63;;;20.52;68.49
54854;BME280;40747;49.480;8.658;2023-06-26T04:53:54;100149.81;;;20.37;68.67
54854;BME280;40747;49.480;8.658;2023-06-26T04:56:19;100153.72;;;20.44;69.05
54854;BME280;40747;49.480;8.658;2023-06-26T04:58:44;100146.06;;;20.40;69.98
54854;BME280;40747;49.480;8.658;2023-06-26T05:01:10;100150.22;;;20.44;70.03
54854;BME280;40747;49.480;8.658;2023-06-26T05:03:35;100144.91;;;20.55;70.06
54854;BME280;40747;49.480;8.658;2023-06-26T05:06:01;100140.41;;;20.56;69.57
54854;BME280;40747;49.480;8.658;2023-06-26T05:08:27;100147.34;;;20.58;70.02
54854;BME280;40747;49.480;8.658;2023-06-26T05:10:52;100136.81;;;20.68;69.61
54854;BME280;40747;49.480;8.658;2023-06-26T05:13:26;100125.03;;;20.71;69.48
54854;BME280;40747;49.480;8.658;2023-06-26T05:15:52;100132.63;;;20.88;69.45
54854;BME280;40747;49.480;8.658;2023-06-26T05:18:17;100135.69;;;20.95;69.19
54854;BME280;40747;49.480;8.658;2023-06-26T05:20:43;100139.22;;;20.95;69.62
54854;BME280;40747;49.480;8.658;2023-06-26T05:23:10;100132.56;;;21.13;69.50
54854;BME280;40747;49.480;8.658;2023-06-26T05:25:36;100134.72;;;21.19;70.03
54854;BME280;40747;49.480;8.658;2023-06-26T05:28:02;100132.81;;;21.32;71.60
54854;BME280;40747;49.480;8.658;2023-06-26T05:30:30;100132.81;;;21.43;71.37
54854;BME280;40747;49.480;8.658;2023-06-26T05:32:59;100137.94;;;21.58;70.16
54854;BME280;40747;49.480;8.658;2023-06-26T05:35:28;100135.63;;;21.76;70.51
54854;BME280;40747;49.480;8.658;2023-06-26T05:37:54;100138.91;;;21.80;69.66
54854;BME280;40747;49.480;8.658;2023-06-26T05:40:20;100133.28;;;21.83;68.46
54854;BME280;40747;49.480;8.658;2023-06-26T05:42:46;100141.56;;;22.02;68.46
54854;BME280;40747;49.480;8.658;2023-06-26T05:45:11;100133.34;;;22.15;67.74
54854;BME280;40747;49.480;8.658;2023-06-26T05:47:37;100144.25;;;22.35;66.75
54854;BME280;40747;49.480;8.658;2023-06-26T05:50:03;100141.28;;;22.49;65.34
54854;BME280;40747;49.480;8.658;2023-06-26T05:52:29;100142.44;;;22.68;66.83
54854;BME280;40747;49.480;8.658;2023-06-26T05:54:55;100138.56;;;22.82;64.46
54854;BME280;40747;49.480;8.658;2023-06-26T05:57:24;100145.47;;;22.96;64.84
54854;BME280;40747;49.480;8.658;2023-06-26T05:59:49;100138.69;;;23.01;62.26
54854;BME280;40747;49.480;8.658;2023-06-26T06:02:16;100144.19;;;23.21;62.80
54854;BME280;40747;49.480;8.658;2023-06-26T06:04:41;100143.88;;;23.35;61.16
54854;BME280;40747;49.480;8.658;2023-06-26T06:07:06;100138.66;;;23.44;60.35
54854;BME280;40747;49.480;8.658;2023-06-26T06:09:32;100139.97;;;23.49;60.02
54854;BME280;40747;49.480;8.658;2023-06-26T06:11:58;100137.34;;;23.69;59.87
54854;BME280;40747;49.480;8.658;2023-06-26T06:14:24;100144.44;;;23.80;60.21
54854;BME280;40747;49.480;8.658;2023-06-26T06:16:49;100140.63;;;23.82;58.89
54854;BME280;40747;49.480;8.658;2023-06-26T06:19:14;100142.53;;;23.92;60.14
54854;BME280;40747;49.480;8.658;2023-06-26T06:21:39;100152.47;;;24.01;59.29
54854;BME280;40747;49.480;8.658;2023-06-26T06:24:05;100145.09;;;24.13;59.10
54854;BME280;40747;49.480;8.658;2023-06-26T06:26:32;100144.16;;;24.24;58.65
54854;BME280;40747;49.480;8.658;2023-06-26T06:28:57;100145.28;;;24.31;58.30
54854;BME280;40747;49.480;8.658;2023-06-26T06:31:22;100160.44;;;24.42;58.54
54854;BME280;40747;49.480;8.658;2023-06-26T06:33:48;100159.31;;;24.44;57.41
54854;BME280;40747;49.480;8.658;2023-06-26T06:36:13;100149.09;;;24.58;57.89
54854;BME280;40747;49.480;8.658;2023-06-26T06:38:38;100151.00;;;24.67;58.12
54854;BME280;40747;49.480;8.658;2023-06-26T06:41:08;100148.41;;;24.65;56.78
54854;BME280;40747;49.480;8.658;2023-06-26T06:43:33;100138.38;;;24.77;56.34
54854;BME280;40747;49.480;8.658;2023-06-26T06:45:58;100139.47;;;24.84;56.80
54854;BME280;40747;49.480;8.658;2023-06-26T06:48:24;100138.75;;;24.92;57.25
54854;BME280;40747;49.480;8.658;2023-06-26T06:50:49;100133.66;;;24.99;58.09
54854;BME280;40747;49.480;8.658;2023-06-26T06:53:14;100131.78;;;25.09;56.30
54854;BME280;40747;49.480;8.658;2023-06-26T06:55:40;100121.66;;;25.21;56.35
54854;BME280;40747;49.480;8.658;2023-06-26T06:58:05;100120.91;;;25.29;56.39
54854;BME280;40747;49.480;8.658;2023-06-26T07:00:31;100127.47;;;25.36;56.05
54854;BME280;40747;49.480;8.658;2023-06-26T07:02:56;100117.19;;;25.49;56.85
54854;BME280;40747;49.480;8.658;2023-06-26T07:05:22;100118.03;;;25.50;57.24
54854;BME280;40747;49.480;8.658;2023-06-26T07:07:47;100120.44;;;25.53;57.01
54854;BME280;40747;49.480;8.658;2023-06-26T07:10:13;100122.94;;;25.64;57.14
54854;BME280;40747;49.480;8.658;2023-06-26T07:12:39;100111.34;;;25.82;55.91
54854;BME280;40747;49.480;8.658;2023-06-26T07:15:05;100110.91;;;26.05;54.99
54854;BME280;40747;49.480;8.658;2023-06-26T07:17:32;100114.16;;;26.26;55.81
54854;BME280;40747;49.480;8.658;2023-06-26T07:19:57;100114.72;;;26.30;54.67
54854;BME280;40747;49.480;8.658;2023-06-26T07:22:23;100105.47;;;26.32;54.73
54854;BME280;40747;49.480;8.658;2023-06-26T07:24:48;100123.13;;;26.45;54.51
54854;BME280;40747;49.480;8.658;2023-06-26T07:27:17;100116.75;;;26.90;54.22
54854;BME280;40747;49.480;8.658;2023-06-26T07:29:45;100123.25;;;27.06;53.37
54854;BME280;40747;49.480;8.658;2023-06-26T07:32:11;100108.59;;;27.43;52.83
54854;BME280;40747;49.480;8.658;2023-06-26T07:34:36;100117.50;;;27.70;52.50
54854;BME280;40747;49.480;8.658;2023-06-26T07:37:02;100114.34;;;27.83;52.39
54854;BME280;40747;49.480;8.658;2023-06-26T07:39:27;100116.16;;;28.08;51.32
54854;BME280;40747;49.480;8.658;2023-06-26T07:41:52;100124.47;;;28.40;50.13
54854;BME280;40747;49.480;8.658;2023-06-26T07:44:18;100122.44;;;28.83;49.74
54854;BME280;40747;49.480;8.658;2023-06-26T07:46:43;100115.63;;;29.12;50.80
54854;BME280;40747;49.480;8.658;2023-06-26T07:49:10;100115.16;;;28.59;50.25
54854;BME280;40747;49.480;8.658;2023-06-26T07:51:35;100111.25;;;28.28;51.01
54854;BME280;40747;49.480;8.658;2023-06-26T07:54:01;100122.09;;;28.53;51.40
54854;BME280;40747;49.480;8.658;2023-06-26T07:56:26;100119.72;;;28.42;51.25
54854;BME280;40747;49.480;8.658;2023-06-26T07:58:51;100118.06;;;28.74;50.87
54854;BME280;40747;49.480;8.658;2023-06-26T08:01:17;100115.13;;;29.00;51.38
54854;BME280;40747;49.480;8.658;2023-06-26T08:03:43;100108.31;;;29.29;49.59
54854;BME280;40747;49.480;8.658;2023-06-26T08:06:08;100113.25;;;29.65;49.68
54854;BME280;40747;49.480;8.658;2023-06-26T08:08:33;100112.47;;;29.48;49.65
54854;BME280;40747;49.480;8.658;2023-06-26T08:10:59;100123.28;;;29.65;49.43
54854;BME280;40747;49.480;8.658;2023-06-26T08:13:24;100118.47;;;30.06;48.71
54854;BME280;40747;49.480;8.658;2023-06-26T08:15:50;100114.19;;;30.35;48.86
54854;BME280;40747;49.480;8.658;2023-06-26T08:18:15;100110.66;;;30.73;47.22
54854;BME280;40747;49.480;8.658;2023-06-26T08:20:40;100113.81;;;31.00;47.62
54854;BME280;40747;49.480;8.658;2023-06-26T08:23:05;100115.72;;;31.29;48.00
54854;BME280;40747;49.480;8.658;2023-06-26T08:25:31;100122.84;;;31.30;47.35
54854;BME280;40747;49.480;8.658;2023-06-26T08:27:57;100124.00;;;31.21;47.19
54854;BME280;40747;49.480;8.658;2023-06-26T08:30:22;100125.19;;;31.48;47.48
54854;BME280;40747;49.480;8.658;2023-06-26T08:32:52;100124.84;;;31.51;46.36
54854;BME280;40747;49.480;8.658;2023-06-26T08:35:18;100126.78;;;32.09;45.28
54854;BME280;40747;49.480;8.658;2023-06-26T08:37:43;100126.56;;;32.69;44.73
54854;BME280;40747;49.480;8.658;2023-06-26T08:40:08;100145.19;;;32.87;45.51
54854;BME280;40747;49.480;8.658;2023-06-26T08:42:34;100134.97;;;31.43;46.87
54854;BME280;40747;49.480;8.658;2023-06-26T08:45:00;100132.63;;;31.25;47.67
54854;BME280;40747;49.480;8.658;2023-06-26T08:47:25;100141.81;;;31.09;47.18
54854;BME280;40747;49.480;8.658;2023-06-26T08:50:08;100141.00;;;31.00;47.85
54854;BME280;40747;49.480;8.658;2023-06-26T08:52:56;100140.59;;;31.41;48.52
54854;BME280;40747;49.480;8.658;2023-06-26T08:55:23;100142.31;;;31.42;46.80
54854;BME280;40747;49.480;8.658;2023-06-26T08:57:50;100144.44;;;31.47;46.11
54854;BME280;40747;49.480;8.658;2023-06-26T09:00:17;100152.03;;;31.36;46.77
54854;BME280;40747;49.480;8.658;2023-06-26T09:02:43;100156.53;;;31.44;45.49
54854;BME280;40747;49.480;8.658;2023-06-26T09:05:09;100149.03;;;31.31;45.77
54854;BME280;40747;49.480;8.658;2023-06-26T09:07:34;100157.50;;;30.98;46.37
54854;BME280;40747;49.480;8.658;2023-06-26T09:10:00;100159.84;;;30.86;46.55
54854;BME280;40747;49.480;8.658;2023-06-26T09:12:27;100156.19;;;31.47;46.87
54854;BME280;40747;49.480;8.658;2023-06-26T09:14:54;100148.56;;;31.28;45.56
54854;BME280;40747;49.480;8.658;2023-06-26T09:17:24;100146.34;;;31.46;45.72
54854;BME280;40747;49.480;8.658;2023-06-26T09:19:50;100157.09;;;31.54;45.44
54854;BME280;40747;49.480;8.658;2023-06-26T09:22:15;100160.16;;;32.11;45.18
54854;BME280;40747;49.480;8.658;2023-06-26T09:24:41;100158.00;;;32.22;46.07
54854;BME280;40747;49.480;8.658;2023-06-26T09:27:07;100157.91;;;32.00;44.68
54854;BME280;40747;49.480;8.658;2023-06-26T09:29:33;100150.91;;;31.61;45.68
54854;BME280;40747;49.480;8.658;2023-06-26T09:31:59;100151.88;;;32.19;45.64
54854;BME280;40747;49.480;8.658;2023-06-26T09:34:30;100154.59;;;32.63;44.32
54854;BME280;40747;49.480;8.658;2023-06-26T09:36:57;100148.66;;;33.03;44.82
54854;BME280;40747;49.480;8.658;2023-06-26T09:39:22;100149.16;;;33.48;43.42
54854;BME280;40747;49.480;8.658;2023-06-26T09:41:48;100146.97;;;33.30;43.88
54854;BME280;40747;49.480;8.658;2023-06-26T09:44:14;100139.63;;;33.30;42.41
54854;BME280;40747;49.480;8.658;2023-06-26T09:46:40;100148.53;;;32.89;42.92
54854;BME280;40747;49.480;8.658;2023-06-26T09:49:07;100150.63;;;32.87;42.77
54854;BME280;40747;49.480;8.658;2023-06-26T09:51:35;100143.94;;;32.90;42.95
54854;BME280;40747;49.480;8.658;2023-06-26T09:54:01;100143.91;;;33.46;42.15
54854;BME280;40747;49.480;8.658;2023-06-26T09:56:28;100140.81;;;33.98;42.02
54854;BME280;40747;49.480;8.658;2023-06-26T09:59:00;100136.47;;;34.44;42.21
54854;BME280;40747;49.480;8.658;2023-06-26T10:01:27;100133.34;;;34.67;39.92
54854;BME280;40747;49.480;8.658;2023-06-26T10:03:53;100134.59;;;34.44;40.31
54854;BME280;40747;49.480;8.658;2023-06-26T10:06:22;100135.22;;;34.46;40.97
54854;BME280;40747;49.480;8.658;2023-06-26T10:08:50;100132.50;;;34.53;40.66
54854;BME280;40747;49.480;8.658;2023-06-26T10:11:16;100129.97;;;34.65;40.23
54854;BME280;40747;49.480;8.658;2023-06-26T10:13:45;100136.44;;;34.24;40.50
54854;BME280;40747;49.480;8.658;2023-06-26T10:16:18;100138.78;;;33.78;41.25
54854;BME280;40747;49.480;8.658;2023-06-26T10:18:46;100134.94;;;34.14;41.12
54854;BME280;40747;49.480;8.658;2023-06-26T10:21:13;100128.91;;;34.73;40.12
54854;BME280;40747;49.480;8.658;2023-06-26T10:23:40;100130.38;;;34.82;40.70
54854;BME280;40747;49.480;8.658;2023-06-26T10:26:06;100132.28;;;34.95;39.94
54854;BME280;40747;49.480;8.658;2023-06-26T10:28:33;100129.56;;;34.61;40.17
54854;BME280;40747;49.480;8.658;2023-06-26T10:31:00;100138.97;;;34.25;40.35
54854;BME280;40747;49.480;8.658;2023-06-26T10:33:26;100145.41;;;34.04;41.02
54854;BME280;40747;49.480;8.658;2023-06-26T10:35:51;100142.50;;;34.19;40.77
54854;BME280;40747;49.480;8.658;2023-06-26T10:38:17;100149.13;;;34.58;40.77
54854;BME280;40747;49.480;8.658;2023-06-26T10:40:47;100145.53;;;34.38;40.60
54854;BME280;40747;49.480;8.658;2023-06-26T10:43:17;100145.25;;;34.26;41.41
54854;BME280;40747;49.480;8.658;2023-06-26T10:45:45;100142.94;;;34.23;40.98
54854;BME280;40747;49.480;8.658;2023-06-26T10:48:14;100155.16;;;33.30;41.83
54854;BME280;40747;49.480;8.658;2023-06-26T10:50:39;100165.31;;;32.64;42.72
54854;BME280;40747;49.480;8.658;2023-06-26T10:53:09;100164.16;;;32.15;44.14
54854;BME280;40747;49.480;8.658;2023-06-26T10:55:36;100162.13;;;32.61;43.79
54854;BME280;40747;49.480;8.658;2023-06-26T10:58:02;100166.78;;;32.67;43.89
54854;BME280;40747;49.480;8.658;2023-06-26T11:00:30;100164.78;;;32.54;43.70
54854;BME280;40747;49.480;8.658;2023-06-26T11:02:55;100167.66;;;32.67;43.96
54854;BME280;40747;49.480;8.658;2023-06-26T11:05:32;100166.00;;;32.95;43.66
54854;BME280;40747;49.480;8.658;2023-06-26T11:08:09;100172.97;;;32.97;43.33
54854;BME280;40747;49.480;8.658;2023-06-26T11:10:51;100162.28;;;33.31;43.46
54854;BME280;40747;49.480;8.658;2023-06-26T11:13:18;100168.19;;;33.35;43.24
54854;BME280;40747;49.480;8.658;2023-06-26T11:15:48;100164.41;;;33.29;42.60
54854;BME280;40747;49.480;8.658;2023-06-26T11:18:14;100162.44;;;33.23;42.84
54854;BME280;40747;49.480;8.658;2023-06-26T11:20:40;100161.53;;;33.44;42.87
54854;BME280;40747;49.480;8.658;2023-06-26T11:23:07;100167.31;;;33.27;43.59
54854;BME280;40747;49.480;8.658;2023-06-26T11:25:37;100155.19;;;33.78;42.66
54854;BME280;40747;49.480;8.658;2023-06-26T11:28:04;100152.78;;;34.04;42.55
54854;BME280;40747;49.480;8.658;2023-06-26T11:30:29;100157.09;;;33.78;43.62
54854;BME280;40747;49.480;8.658;2023-06-26T11:33:05;100162.25;;;34.14;43.03
54854;BME280;40747;49.480;8.658;2023-06-26T11:35:31;100154.78;;;34.50;41.96
54854;BME280;40747;49.480;8.658;2023-06-26T11:38:01;100164.72;;;34.98;41.40
54854;BME280;40747;49.480;8.658;2023-06-26T11:40:30;100157.31;;;34.65;41.40
54854;BME280;40747;49.480;8.658;2023-06-26T11:43:00;100171.03;;;34.92;40.71
54854;BME280;40747;49.480;8.658;2023-06-26T11:45:30;100160.16;;;34.17;41.60
54854;BME280;40747;49.480;8.658;2023-06-26T11:47:58;100174.84;;;32.97;42.44
54854;BME280;40747;49.480;8.658;2023-06-26T11:50:24;100177.44;;;32.62;43.59
54854;BME280;40747;49.480;8.658;2023-06-26T11:52:57;100181.72;;;32.93;43.49
54854;BME280;40747;49.480;8.658;2023-06-26T11:55:23;100175.63;;;33.19;43.67
54854;BME280;40747;49.480;8.658;2023-06-26T11:57:50;100169.09;;;33.42;42.90
54854;BME280;40747;49.480;8.658;2023-06-26T12:00:16;100165.53;;;33.48;42.75
54854;BME280;40747;49.480;8.658;2023-06-26T12:02:44;100171.63;;;33.43;42.52
54854;BME280;40747;49.480;8.658;2023-06-26T12:05:10;100168.13;;;33.56;42.16
54854;BME280;40747;49.480;8.658;2023-06-26T12:07:36;100176.34;;;33.63;42.31
54854;BME280;40747;49.480;8.658;2023-06-26T12:10:03;100175.59;;;33.83;41.04
54854;BME280;40747;49.480;8.658;2023-06-26T12:12:30;100180.19;;;33.75;41.13
54854;BME280;40747;49.480;8.658;2023-06-26T12:14:56;100166.69;;;33.67;41.33
54854;BME280;40747;49.480;8.658;2023-06-26T12:17:23;100163.38;;;33.78;41.12
54854;BME280;40747;49.480;8.658;2023-06-26T12:19:50;100155.97;;;33.65;40.42
54854;BME280;40747;49.480;8.658;2023-06-26T12:22:17;100169.88;;;33.77;40.90
54854;BME280;40747;49.480;8.658;2023-06-26T12:24:43;100169.19;;;34.04;40.60
54854;BME280;40747;49.480;8.658;2023-06-26T12:27:10;100156.47;;;34.44;40.64
54854;BME280;40747;49.480;8.658;2023-06-26T12:29:36;100159.50;;;34.08;40.26
54854;BME280;40747;49.480;8.658;2023-06-26T12:32:02;100164.53;;;34.04;41.01
54854;BME280;40747;49.480;8.658;2023-06-26T12:34:31;100162.09;;;33.74;40.55
54854;BME280;40747;49.480;8.658;2023-06-26T12:37:01;100158.47;;;34.02;40.52
54854;BME280;40747;49.480;8.658;2023-06-26T12:39:28;100154.41;;;33.85;39.59
54854;BME280;40747;49.480;8.658;2023-06-26T12:41:56;100160.41;;;33.73;38.88
54854;BME280;40747;49.480;8.658;2023-06-26T12:44:25;100155.13;;;33.58;39.57
54854;BME280;40747;49.480;8.658;2023-06-26T12:46:57;100154.13;;;33.73;39.60
54854;BME280;40747;49.480;8.658;2023-06-26T12:49:37;100155.97;;;33.65;37.95